Terminal Aerodrome Forecast
Issued by NWS Jackson, KY

Home | Current Version | Previous Version | Text Only | Print | Product List | Glossary On
Versions: 1 2 3 4 5 6 7 8 9 10 11 12 13 14 15 16 17 18
569
FTUS43 KJKL 160520
TAFJKL
TAF
KJKL 160520Z 1606/1706 00000KT 3/4SM BR BKN003 OVC015
     FM160700 00000KT 1/4SM FG VV001
     FM161500 00000KT P6SM OVC008
     FM161600 00000KT P6SM BKN010
     FM162000 VRB03KT P6SM BKN060=

USA.gov is the U.S. government's official web portal to all federal, state and local government web resources and services.